sensor_id;sensor_type;location;lat;lon;timestamp;pressure;altitude;pressure_sealevel;temperature;humidity
8573;BME280;4324;42.012;24.872;2022-10-17T00:01:37;100333.47;;;10.78;63.23
8573;BME280;4324;42.012;24.872;2022-10-17T00:04:04;100322.72;;;10.70;63.36
8573;BME280;4324;42.012;24.872;2022-10-17T00:06:31;100339.03;;;10.75;63.53
8573;BME280;4324;42.012;24.872;2022-10-17T00:08:59;100328.44;;;10.75;63.50
8573;BME280;4324;42.012;24.872;2022-10-17T00:11:26;100332.91;;;10.74;63.54
8573;BME280;4324;42.012;24.872;2022-10-17T00:13:54;100334.88;;;10.72;63.58
8573;BME280;4324;42.012;24.872;2022-10-17T00:16:23;100341.28;;;10.70;63.65
8573;BME280;4324;42.012;24.872;2022-10-17T00:18:50;100329.94;;;10.68;63.78
8573;BME280;4324;42.012;24.872;2022-10-17T00:21:18;100297.41;;;10.46;63.78
8573;BME280;4324;42.012;24.872;2022-10-17T00:23:46;100266.13;;;10.30;63.75
8573;BME280;4324;42.012;24.872;2022-10-17T00:26:15;100329.00;;;10.69;63.92
8573;BME280;4324;42.012;24.872;2022-10-17T00:28:44;100312.22;;;10.58;63.75
8573;BME280;4324;42.012;24.872;2022-10-17T00:31:11;100317.25;;;10.61;63.86
8573;BME280;4324;42.012;24.872;2022-10-17T00:33:38;100313.63;;;10.62;63.85
8573;BME280;4324;42.012;24.872;2022-10-17T00:36:07;100330.66;;;10.70;63.86
8573;BME280;4324;42.012;24.872;2022-10-17T00:38:35;100332.91;;;10.64;63.87
8573;BME280;4324;42.012;24.872;2022-10-17T00:41:02;100336.22;;;10.66;63.66
8573;BME280;4324;42.012;24.872;2022-10-17T00:43:48;100329.53;;;10.62;63.97
8573;BME280;4324;42.012;24.872;2022-10-17T00:46:15;100314.72;;;10.50;63.92
8573;BME280;4324;42.012;24.872;2022-10-17T00:48:43;100338.47;;;10.61;63.93
8573;BME280;4324;42.012;24.872;2022-10-17T00:51:11;100339.41;;;10.60;63.88
8573;BME280;4324;42.012;24.872;2022-10-17T00:53:38;100260.72;;;10.11;64.04
8573;BME280;4324;42.012;24.872;2022-10-17T00:56:05;100304.34;;;10.37;63.92
8573;BME280;4324;42.012;24.872;2022-10-17T00:58:34;100319.69;;;10.44;64.11
8573;BME280;4324;42.012;24.872;2022-10-17T01:01:02;100334.91;;;10.51;64.30
8573;BME280;4324;42.012;24.872;2022-10-17T01:03:29;100335.91;;;10.50;64.22
8573;BME280;4324;42.012;24.872;2022-10-17T01:05:56;100335.06;;;10.50;64.17
8573;BME280;4324;42.012;24.872;2022-10-17T01:08:23;100329.19;;;10.46;64.23
8573;BME280;4324;42.012;24.872;2022-10-17T01:10:56;100334.50;;;10.46;64.34
8573;BME280;4324;42.012;24.872;2022-10-17T01:13:29;100334.59;;;10.45;64.30
8573;BME280;4324;42.012;24.872;2022-10-17T01:16:07;100341.19;;;10.50;64.42
8573;BME280;4324;42.012;24.872;2022-10-17T01:18:43;100336.72;;;10.51;64.22
8573;BME280;4324;42.012;24.872;2022-10-17T01:21:37;100328.47;;;10.44;64.22
8573;BME280;4324;42.012;24.872;2022-10-17T01:27:50;100335.59;;;10.44;64.35
8573;BME280;4324;42.012;24.872;2022-10-17T01:33:26;100337.66;;;10.40;64.08
8573;BME280;4324;42.012;24.872;2022-10-17T01:35:56;100326.19;;;10.30;64.19
8573;BME280;4324;42.012;24.872;2022-10-17T01:38:29;100335.53;;;10.34;64.29
8573;BME280;4324;42.012;24.872;2022-10-17T01:41:01;100341.81;;;10.33;64.53
8573;BME280;4324;42.012;24.872;2022-10-17T01:43:33;100335.81;;;10.31;64.40
8573;BME280;4324;42.012;24.872;2022-10-17T01:46:09;100334.94;;;10.30;64.30
8573;BME280;4324;42.012;24.872;2022-10-17T01:48:43;100343.88;;;10.29;64.59
8573;BME280;4324;42.012;24.872;2022-10-17T01:51:15;100343.03;;;10.29;64.58
8573;BME280;4324;42.012;24.872;2022-10-17T01:53:48;100347.34;;;10.30;64.63
8573;BME280;4324;42.012;24.872;2022-10-17T01:56:17;100345.69;;;10.29;64.70
8573;BME280;4324;42.012;24.872;2022-10-17T01:58:49;100348.59;;;10.26;64.37
8573;BME280;4324;42.012;24.872;2022-10-17T02:01:17;100348.81;;;10.23;64.34
8573;BME280;4324;42.012;24.872;2022-10-17T02:03:48;100343.78;;;10.19;64.54
8573;BME280;4324;42.012;24.872;2022-10-17T02:06:16;100317.47;;;9.97;64.66
8573;BME280;4324;42.012;24.872;2022-10-17T02:08:45;100334.25;;;10.07;64.38
8573;BME280;4324;42.012;24.872;2022-10-17T02:11:14;100314.13;;;9.95;64.54
8573;BME280;4324;42.012;24.872;2022-10-17T02:14:00;100354.91;;;10.13;64.38
8573;BME280;4324;42.012;24.872;2022-10-17T02:16:34;100346.19;;;10.02;64.12
8573;BME280;4324;42.012;24.872;2022-10-17T02:19:17;100344.81;;;10.07;64.68
8573;BME280;4324;42.012;24.872;2022-10-17T02:21:52;100352.66;;;10.09;64.63
8573;BME280;4324;42.012;24.872;2022-10-17T02:24:29;100352.19;;;10.04;64.68
8573;BME280;4324;42.012;24.872;2022-10-17T02:27:05;100360.66;;;9.98;64.34
8573;BME280;4324;42.012;24.872;2022-10-17T02:29:39;100359.69;;;9.99;64.13
8573;BME280;4324;42.012;24.872;2022-10-17T02:32:12;100356.97;;;9.89;64.42
8573;BME280;4324;42.012;24.872;2022-10-17T02:34:44;100372.34;;;9.95;64.74
8573;BME280;4324;42.012;24.872;2022-10-17T02:37:14;100364.44;;;9.84;64.91
8573;BME280;4324;42.012;24.872;2022-10-17T02:39:43;100374.50;;;9.90;64.92
8573;BME280;4324;42.012;24.872;2022-10-17T02:42:12;100378.13;;;9.89;65.01
8573;BME280;4324;42.012;24.872;2022-10-17T02:44:42;100380.91;;;9.87;64.97
8573;BME280;4324;42.012;24.872;2022-10-17T02:47:14;100380.06;;;9.87;64.93
8573;BME280;4324;42.012;24.872;2022-10-17T02:49:49;100381.31;;;9.83;65.05
8573;BME280;4324;42.012;24.872;2022-10-17T02:52:21;100387.53;;;9.82;65.11
8573;BME280;4324;42.012;24.872;2022-10-17T02:54:53;100384.19;;;9.80;65.41
8573;BME280;4324;42.012;24.872;2022-10-17T02:57:27;100364.31;;;9.64;65.62
8573;BME280;4324;42.012;24.872;2022-10-17T02:59:58;100400.78;;;9.82;65.76
8573;BME280;4324;42.012;24.872;2022-10-17T03:02:26;100397.53;;;9.78;65.79
8573;BME280;4324;42.012;24.872;2022-10-17T03:04:55;100399.81;;;9.83;65.72
8573;BME280;4324;42.012;24.872;2022-10-17T03:07:21;100402.47;;;9.83;65.62
8573;BME280;4324;42.012;24.872;2022-10-17T03:09:48;100399.94;;;9.81;65.12
8573;BME280;4324;42.012;24.872;2022-10-17T03:12:16;100398.66;;;9.76;65.37
8573;BME280;4324;42.012;24.872;2022-10-17T03:14:42;100395.41;;;9.72;65.14
8573;BME280;4324;42.012;24.872;2022-10-17T03:17:09;100391.41;;;9.78;65.42
8573;BME280;4324;42.012;24.872;2022-10-17T03:19:36;100388.06;;;9.76;65.52
8573;BME280;4324;42.012;24.872;2022-10-17T03:22:04;100374.50;;;9.69;65.56
8573;BME280;4324;42.012;24.872;2022-10-17T03:24:31;100377.16;;;9.69;65.19
8573;BME280;4324;42.012;24.872;2022-10-17T03:26:58;100397.66;;;9.77;65.43
8573;BME280;4324;42.012;24.872;2022-10-17T03:29:25;100397.09;;;9.73;65.20
8573;BME280;4324;42.012;24.872;2022-10-17T03:31:52;100401.41;;;9.74;65.10
8573;BME280;4324;42.012;24.872;2022-10-17T03:34:19;100387.38;;;9.62;65.16
8573;BME280;4324;42.012;24.872;2022-10-17T03:36:46;100382.59;;;9.56;64.86
8573;BME280;4324;42.012;24.872;2022-10-17T03:39:14;100407.31;;;9.66;65.01
8573;BME280;4324;42.012;24.872;2022-10-17T03:41:41;100413.34;;;9.68;65.06
8573;BME280;4324;42.012;24.872;2022-10-17T03:44:08;100413.34;;;9.68;65.35
8573;BME280;4324;42.012;24.872;2022-10-17T03:46:34;100418.50;;;9.70;65.45
8573;BME280;4324;42.012;24.872;2022-10-17T03:49:02;100409.97;;;9.66;65.33
8573;BME280;4324;42.012;24.872;2022-10-17T03:51:29;100402.56;;;9.60;65.07
8573;BME280;4324;42.012;24.872;2022-10-17T03:53:56;100412.63;;;9.66;65.02
8573;BME280;4324;42.012;24.872;2022-10-17T03:56:24;100413.69;;;9.64;64.92
8573;BME280;4324;42.012;24.872;2022-10-17T03:58:51;100415.50;;;9.63;65.10
8573;BME280;4324;42.012;24.872;2022-10-17T04:01:18;100398.22;;;9.59;65.52
8573;BME280;4324;42.012;24.872;2022-10-17T04:03:48;100396.78;;;9.55;65.16
8573;BME280;4324;42.012;24.872;2022-10-17T04:06:15;100401.59;;;9.61;65.34
8573;BME280;4324;42.012;24.872;2022-10-17T04:08:42;100387.28;;;9.53;65.35
8573;BME280;4324;42.012;24.872;2022-10-17T04:11:13;100405.19;;;9.60;65.29
8573;BME280;4324;42.012;24.872;2022-10-17T04:13:41;100292.19;;;8.98;65.80
8573;BME280;4324;42.012;24.872;2022-10-17T04:16:11;100399.91;;;9.60;65.61
8573;BME280;4324;42.012;24.872;2022-10-17T04:18:43;100417.69;;;9.58;65.73
8573;BME280;4324;42.012;24.872;2022-10-17T04:21:10;100402.00;;;9.45;65.81
8573;BME280;4324;42.012;24.872;2022-10-17T04:23:37;100416.50;;;9.51;65.74
8573;BME280;4324;42.012;24.872;2022-10-17T04:26:05;100412.06;;;9.52;65.81
8573;BME280;4324;42.012;24.872;2022-10-17T04:28:32;100417.47;;;9.50;66.21
8573;BME280;4324;42.012;24.872;2022-10-17T04:31:02;100422.53;;;9.53;66.15
8573;BME280;4324;42.012;24.872;2022-10-17T04:33:30;100418.44;;;9.49;66.24
8573;BME280;4324;42.012;24.872;2022-10-17T04:35:58;100430.72;;;9.50;65.86
8573;BME280;4324;42.012;24.872;2022-10-17T04:38:25;100437.66;;;9.51;66.37
8573;BME280;4324;42.012;24.872;2022-10-17T04:40:52;100448.00;;;9.54;66.28
8573;BME280;4324;42.012;24.872;2022-10-17T04:43:19;100437.66;;;9.51;66.27
8573;BME280;4324;42.012;24.872;2022-10-17T04:45:46;100437.44;;;9.54;66.20
8573;BME280;4324;42.012;24.872;2022-10-17T04:48:14;100445.56;;;9.62;66.05
8573;BME280;4324;42.012;24.872;2022-10-17T04:50:52;100439.81;;;9.57;66.16
8573;BME280;4324;42.012;24.872;2022-10-17T04:53:19;100440.31;;;9.51;65.73
8573;BME280;4324;42.012;24.872;2022-10-17T04:55:46;100442.50;;;9.46;65.86
8573;BME280;4324;42.012;24.872;2022-10-17T04:58:13;100460.59;;;9.62;66.01
8573;BME280;4324;42.012;24.872;2022-10-17T05:00:40;100468.41;;;9.63;66.14
8573;BME280;4324;42.012;24.872;2022-10-17T05:03:07;100420.63;;;9.33;66.13
8573;BME280;4324;42.012;24.872;2022-10-17T05:05:38;100447.75;;;9.57;66.21
8573;BME280;4324;42.012;24.872;2022-10-17T05:08:05;100466.47;;;9.65;66.35
8573;BME280;4324;42.012;24.872;2022-10-17T05:10:40;100467.78;;;9.71;66.24
8573;BME280;4324;42.012;24.872;2022-10-17T05:13:10;100473.56;;;9.76;66.15
8573;BME280;4324;42.012;24.872;2022-10-17T05:15:37;100467.16;;;9.79;66.18
8573;BME280;4324;42.012;24.872;2022-10-17T05:18:05;100470.06;;;9.76;66.16
8573;BME280;4324;42.012;24.872;2022-10-17T05:20:32;100480.63;;;9.87;65.79
8573;BME280;4324;42.012;24.872;2022-10-17T05:23:01;100490.94;;;9.90;65.90
8573;BME280;4324;42.012;24.872;2022-10-17T05:25:28;100474.34;;;9.88;65.83
8573;BME280;4324;42.012;24.872;2022-10-17T05:27:55;100465.81;;;9.84;65.72
8573;BME280;4324;42.012;24.872;2022-10-17T05:30:25;100493.28;;;10.04;65.45
8573;BME280;4324;42.012;24.872;2022-10-17T05:32:52;100507.25;;;10.06;65.43
8573;BME280;4324;42.012;24.872;2022-10-17T05:35:20;100422.97;;;9.58;65.21
8573;BME280;4324;42.012;24.872;2022-10-17T05:37:47;100484.91;;;9.99;65.33
8573;BME280;4324;42.012;24.872;2022-10-17T05:40:19;100508.44;;;10.13;65.25
8573;BME280;4324;42.012;24.872;2022-10-17T05:42:46;100507.34;;;10.16;65.27
8573;BME280;4324;42.012;24.872;2022-10-17T05:45:14;100518.25;;;10.23;65.12
8573;BME280;4324;42.012;24.872;2022-10-17T05:47:41;100525.00;;;10.27;64.84
8573;BME280;4324;42.012;24.872;2022-10-17T05:50:09;100520.19;;;10.21;64.68
8573;BME280;4324;42.012;24.872;2022-10-17T05:52:36;100536.06;;;10.32;64.61
8573;BME280;4324;42.012;24.872;2022-10-17T05:55:04;100533.41;;;10.32;64.58
8573;BME280;4324;42.012;24.872;2022-10-17T05:57:32;100539.63;;;10.42;64.43
8573;BME280;4324;42.012;24.872;2022-10-17T06:00:00;100530.25;;;10.38;64.43
8573;BME280;4324;42.012;24.872;2022-10-17T06:02:26;100543.72;;;10.46;64.50
8573;BME280;4324;42.012;24.872;2022-10-17T06:04:53;100539.34;;;10.45;64.36
8573;BME280;4324;42.012;24.872;2022-10-17T06:07:20;100546.41;;;10.56;64.46
8573;BME280;4324;42.012;24.872;2022-10-17T06:09:48;100496.09;;;10.35;64.25
8573;BME280;4324;42.012;24.872;2022-10-17T06:12:22;100542.19;;;10.64;64.13
8573;BME280;4324;42.012;24.872;2022-10-17T06:15:11;100530.13;;;10.60;64.17
8573;BME280;4324;42.012;24.872;2022-10-17T06:17:50;100519.94;;;10.56;64.05
8573;BME280;4324;42.012;24.872;2022-10-17T06:23:05;100542.72;;;10.89;63.74
8573;BME280;4324;42.012;24.872;2022-10-17T06:25:32;100543.06;;;10.96;63.81
8573;BME280;4324;42.012;24.872;2022-10-17T06:28:00;100522.69;;;10.96;63.71
8573;BME280;4324;42.012;24.872;2022-10-17T06:30:36;100544.84;;;11.16;63.61
8573;BME280;4324;42.012;24.872;2022-10-17T06:33:04;100539.25;;;11.19;63.38
8573;BME280;4324;42.012;24.872;2022-10-17T06:35:31;100544.63;;;11.29;63.34
8573;BME280;4324;42.012;24.872;2022-10-17T06:37:58;100528.28;;;11.24;63.21
8573;BME280;4324;42.012;24.872;2022-10-17T06:40:25;100552.50;;;11.40;63.24
8573;BME280;4324;42.012;24.872;2022-10-17T06:42:52;100537.56;;;11.39;63.35
8573;BME280;4324;42.012;24.872;2022-10-17T06:45:19;100536.31;;;11.43;63.00
8573;BME280;4324;42.012;24.872;2022-10-17T06:47:47;100555.94;;;11.61;62.92
8573;BME280;4324;42.012;24.872;2022-10-17T06:50:15;100557.06;;;11.69;63.00
8573;BME280;4324;42.012;24.872;2022-10-17T06:52:42;100565.19;;;11.77;63.02
8573;BME280;4324;42.012;24.872;2022-10-17T06:55:10;100528.84;;;11.68;62.97
8573;BME280;4324;42.012;24.872;2022-10-17T06:57:36;100534.59;;;11.73;62.87
8573;BME280;4324;42.012;24.872;2022-10-17T07:00:23;100566.94;;;11.97;62.73
8573;BME280;4324;42.012;24.872;2022-10-17T07:03:32;100571.44;;;12.06;62.61
8573;BME280;4324;42.012;24.872;2022-10-17T07:06:06;100564.16;;;12.08;62.72
8573;BME280;4324;42.012;24.872;2022-10-17T07:08:35;100566.69;;;12.20;62.70
8573;BME280;4324;42.012;24.872;2022-10-17T07:11:14;100560.81;;;12.26;62.85
8573;BME280;4324;42.012;24.872;2022-10-17T07:13:45;100573.00;;;12.48;62.50
8573;BME280;4324;42.012;24.872;2022-10-17T07:16:40;100565.03;;;12.57;62.38
8573;BME280;4324;42.012;24.872;2022-10-17T07:19:09;100580.69;;;12.70;62.34
8573;BME280;4324;42.012;24.872;2022-10-17T07:21:36;100567.25;;;12.72;62.13
8573;BME280;4324;42.012;24.872;2022-10-17T07:24:03;100581.94;;;12.86;62.01
8573;BME280;4324;42.012;24.872;2022-10-17T07:26:31;100582.59;;;12.97;61.90
8573;BME280;4324;42.012;24.872;2022-10-17T07:28:58;100595.72;;;13.08;61.60
8573;BME280;4324;42.012;24.872;2022-10-17T07:31:26;100575.88;;;13.13;61.48
8573;BME280;4324;42.012;24.872;2022-10-17T07:33:53;100588.72;;;13.27;61.33
8573;BME280;4324;42.012;24.872;2022-10-17T07:36:22;100588.16;;;13.33;61.25
8573;BME280;4324;42.012;24.872;2022-10-17T07:38:48;100590.91;;;13.41;61.14
8573;BME280;4324;42.012;24.872;2022-10-17T07:41:18;100577.78;;;13.40;60.77
8573;BME280;4324;42.012;24.872;2022-10-17T07:43:46;100577.72;;;13.49;60.77
8573;BME280;4324;42.012;24.872;2022-10-17T07:46:14;100586.59;;;13.68;60.82
8573;BME280;4324;42.012;24.872;2022-10-17T07:48:41;100584.66;;;13.70;60.79
8573;BME280;4324;42.012;24.872;2022-10-17T07:51:09;100588.78;;;13.82;60.53
8573;BME280;4324;42.012;24.872;2022-10-17T07:53:39;100589.56;;;13.92;60.23
8573;BME280;4324;42.012;24.872;2022-10-17T07:56:20;100586.88;;;14.02;60.02
8573;BME280;4324;42.012;24.872;2022-10-17T07:58:52;100569.34;;;13.99;60.02
8573;BME280;4324;42.012;24.872;2022-10-17T08:01:23;100536.91;;;13.86;59.84
8573;BME280;4324;42.012;24.872;2022-10-17T08:03:51;100573.72;;;14.18;59.71
8573;BME280;4324;42.012;24.872;2022-10-17T08:06:18;100584.69;;;14.33;59.43
8573;BME280;4324;42.012;24.872;2022-10-17T08:08:46;100587.41;;;14.41;59.29
8573;BME280;4324;42.012;24.872;2022-10-17T08:11:21;100574.09;;;14.41;59.14
8573;BME280;4324;42.012;24.872;2022-10-17T08:13:50;100567.34;;;14.47;59.19
8573;BME280;4324;42.012;24.872;2022-10-17T08:16:19;100542.06;;;14.33;58.98
8573;BME280;4324;42.012;24.872;2022-10-17T08:18:51;100581.66;;;14.64;59.04
8573;BME280;4324;42.012;24.872;2022-10-17T08:21:28;100581.22;;;14.68;59.05
8573;BME280;4324;42.012;24.872;2022-10-17T08:24:12;100579.75;;;14.74;58.81
8573;BME280;4324;42.012;24.872;2022-10-17T08:26:39;100581.13;;;14.78;58.97
8573;BME280;4324;42.012;24.872;2022-10-17T08:29:11;100586.84;;;14.83;58.67
8573;BME280;4324;42.012;24.872;2022-10-17T08:31:38;100588.88;;;14.89;58.29
8573;BME280;4324;42.012;24.872;2022-10-17T08:34:08;100588.88;;;14.89;58.27
8573;BME280;4324;42.012;24.872;2022-10-17T08:36:38;100585.19;;;14.90;58.33
8573;BME280;4324;42.012;24.872;2022-10-17T08:39:05;100586.59;;;14.94;58.24
8573;BME280;4324;42.012;24.872;2022-10-17T08:41:46;100587.94;;;14.98;58.07
8573;BME280;4324;42.012;24.872;2022-10-17T08:44:24;100585.16;;;15.08;58.08
8573;BME280;4324;42.012;24.872;2022-10-17T08:47:04;100575.41;;;15.17;57.97
8573;BME280;4324;42.012;24.872;2022-10-17T08:49:43;100524.72;;;14.91;58.01
8573;BME280;4324;42.012;24.872;2022-10-17T08:52:18;100573.09;;;15.22;57.62
8573;BME280;4324;42.012;24.872;2022-10-17T08:54:48;100574.47;;;15.34;57.72
8573;BME280;4324;42.012;24.872;2022-10-17T08:57:18;100563.66;;;15.36;57.50
8573;BME280;4324;42.012;24.872;2022-10-17T08:59:49;100527.03;;;15.20;57.21
8573;BME280;4324;42.012;24.872;2022-10-17T09:02:33;100548.16;;;15.39;57.10
8573;BME280;4324;42.012;24.872;2022-10-17T09:05:19;100576.53;;;15.66;56.87
8573;BME280;4324;42.012;24.872;2022-10-17T09:08:19;100555.97;;;15.67;56.62
8573;BME280;4324;42.012;24.872;2022-10-17T09:10:56;100559.00;;;15.72;56.30
8573;BME280;4324;42.012;24.872;2022-10-17T09:22:54;100568.44;;;16.01;55.83
8573;BME280;4324;42.012;24.872;2022-10-17T09:25:26;100541.88;;;15.91;55.79
8573;BME280;4324;42.012;24.872;2022-10-17T09:27:58;100560.09;;;16.04;55.43
8573;BME280;4324;42.012;24.872;2022-10-17T09:30:53;100560.13;;;16.12;55.24
8573;BME280;4324;42.012;24.872;2022-10-17T09:33:25;100559.81;;;16.15;54.59
8573;BME280;4324;42.012;24.872;2022-10-17T09:35:53;100560.00;;;16.21;54.19
8573;BME280;4324;42.012;24.872;2022-10-17T09:38:25;100542.78;;;16.24;53.75
8573;BME280;4324;42.012;24.872;2022-10-17T09:40:57;100556.81;;;16.34;53.26
8573;BME280;4324;42.012;24.872;2022-10-17T09:43:25;100559.16;;;16.37;52.99
8573;BME280;4324;42.012;24.872;2022-10-17T09:46:00;100557.50;;;16.44;52.82
8573;BME280;4324;42.012;24.872;2022-10-17T09:48:34;100559.84;;;16.48;52.51
8573;BME280;4324;42.012;24.872;2022-10-17T09:54:17;100543.47;;;16.51;50.47
8573;BME280;4324;42.012;24.872;2022-10-17T09:57:00;100548.81;;;16.59;49.30
8573;BME280;4324;42.012;24.872;2022-10-17T09:59:32;100537.78;;;16.62;49.50
8573;BME280;4324;42.012;24.872;2022-10-17T10:02:13;100537.94;;;16.68;49.31
8573;BME280;4324;42.012;24.872;2022-10-17T10:04:51;100542.66;;;16.75;49.21
8573;BME280;4324;42.012;24.872;2022-10-17T10:07:21;100520.06;;;16.69;49.07
8573;BME280;4324;42.012;24.872;2022-10-17T10:09:59;100523.25;;;16.73;48.54
8573;BME280;4324;42.012;24.872;2022-10-17T10:12:33;100523.75;;;16.84;48.30
8573;BME280;4324;42.012;24.872;2022-10-17T10:15:01;100533.13;;;16.88;47.84
8573;BME280;4324;42.012;24.872;2022-10-17T10:17:50;100533.75;;;16.90;47.64
8573;BME280;4324;42.012;24.872;2022-10-17T10:20:26;100518.22;;;16.94;47.25
8573;BME280;4324;42.012;24.872;2022-10-17T10:23:12;100508.03;;;16.89;46.80
8573;BME280;4324;42.012;24.872;2022-10-17T10:25:54;100512.69;;;16.96;46.63
8573;BME280;4324;42.012;24.872;2022-10-17T10:28:25;100514.03;;;17.00;46.40
8573;BME280;4324;42.012;24.872;2022-10-17T10:30:53;100499.00;;;16.99;46.53
8573;BME280;4324;42.012;24.872;2022-10-17T10:33:27;100468.56;;;16.83;46.70
8573;BME280;4324;42.012;24.872;2022-10-17T10:35:57;100490.94;;;17.07;46.80
8573;BME280;4324;42.012;24.872;2022-10-17T10:38:26;100486.56;;;17.14;46.99
8573;BME280;4324;42.012;24.872;2022-10-17T10:40:54;100470.69;;;17.04;46.50
8573;BME280;4324;42.012;24.872;2022-10-17T10:43:26;100497.22;;;17.22;46.49
8573;BME280;4324;42.012;24.872;2022-10-17T10:45:56;100482.53;;;17.18;46.40
8573;BME280;4324;42.012;24.872;2022-10-17T10:48:26;100491.06;;;17.22;46.22
8573;BME280;4324;42.012;24.872;2022-10-17T10:50:56;100497.38;;;17.29;46.29
8573;BME280;4324;42.012;24.872;2022-10-17T10:53:37;100484.84;;;17.29;46.26
8573;BME280;4324;42.012;24.872;2022-10-17T10:56:14;100484.97;;;17.36;46.31
8573;BME280;4324;42.012;24.872;2022-10-17T10:58:53;100478.25;;;17.40;46.84
8573;BME280;4324;42.012;24.872;2022-10-17T11:05:35;100472.69;;;17.50;46.85
8573;BME280;4324;42.012;24.872;2022-10-17T11:11:12;100454.31;;;17.47;47.37
8573;BME280;4324;42.012;24.872;2022-10-17T11:13:52;100474.31;;;17.59;47.20
8573;BME280;4324;42.012;24.872;2022-10-17T11:16:32;100466.28;;;17.59;47.29
8573;BME280;4324;42.012;24.872;2022-10-17T11:19:09;100471.09;;;17.63;47.06
8573;BME280;4324;42.012;24.872;2022-10-17T11:21:45;100469.59;;;17.69;47.13
8573;BME280;4324;42.012;24.872;2022-10-17T11:24:20;100448.84;;;17.63;47.21
8573;BME280;4324;42.012;24.872;2022-10-17T11:26:53;100399.44;;;17.34;46.59
8573;BME280;4324;42.012;24.872;2022-10-17T11:29:35;100458.66;;;17.79;46.46
8573;BME280;4324;42.012;24.872;2022-10-17T11:32:10;100449.97;;;17.77;46.46
8573;BME280;4324;42.012;24.872;2022-10-17T11:34:42;100456.28;;;17.84;46.57
8573;BME280;4324;42.012;24.872;2022-10-17T11:37:16;100439.34;;;17.83;46.33
8573;BME280;4324;42.012;24.872;2022-10-17T11:39:50;100424.31;;;17.74;46.17
8573;BME280;4324;42.012;24.872;2022-10-17T11:42:22;100423.81;;;17.79;45.75
8573;BME280;4324;42.012;24.872;2022-10-17T11:44:58;100444.63;;;18.00;45.86
8573;BME280;4324;42.012;24.872;2022-10-17T11:47:35;100429.91;;;17.96;46.05
8573;BME280;4324;42.012;24.872;2022-10-17T11:50:15;100443.72;;;18.07;45.83
8573;BME280;4324;42.012;24.872;2022-10-17T11:52:53;100441.50;;;18.11;45.73
8573;BME280;4324;42.012;24.872;2022-10-17T11:55:24;100433.47;;;18.11;45.72
8573;BME280;4324;42.012;24.872;2022-10-17T11:58:12;100417.09;;;18.06;45.65
8573;BME280;4324;42.012;24.872;2022-10-17T12:00:55;100425.72;;;18.16;45.80
8573;BME280;4324;42.012;24.872;2022-10-17T12:03:39;100436.06;;;18.19;45.77
8573;BME280;4324;42.012;24.872;2022-10-17T12:06:14;100398.63;;;18.11;45.37
8573;BME280;4324;42.012;24.872;2022-10-17T12:08:51;100425.94;;;18.29;45.54
8573;BME280;4324;42.012;24.872;2022-10-17T12:11:28;100434.25;;;18.34;45.46
8573;BME280;4324;42.012;24.872;2022-10-17T12:14:00;100412.06;;;18.26;45.48
8573;BME280;4324;42.012;24.872;2022-10-17T12:16:48;100403.09;;;18.33;45.39
8573;BME280;4324;42.012;24.872;2022-10-17T12:19:27;100394.78;;;18.28;45.32
8573;BME280;4324;42.012;24.872;2022-10-17T12:25:01;100419.41;;;18.47;45.37
8573;BME280;4324;42.012;24.872;2022-10-17T12:27:37;100377.69;;;18.29;45.38
8573;BME280;4324;42.012;24.872;2022-10-17T12:30:22;100420.78;;;18.57;45.25
8573;BME280;4324;42.012;24.872;2022-10-17T12:33:20;100421.72;;;18.65;45.22
8573;BME280;4324;42.012;24.872;2022-10-17T12:39:55;100417.50;;;18.70;45.12
8573;BME280;4324;42.012;24.872;2022-10-17T12:42:50;100417.31;;;18.72;45.25
8573;BME280;4324;42.012;24.872;2022-10-17T12:45:48;100410.09;;;18.72;45.44
8573;BME280;4324;42.012;24.872;2022-10-17T12:51:20;100417.97;;;18.74;45.41
8573;BME280;4324;42.012;24.872;2022-10-17T12:53:58;100410.41;;;18.77;45.46
8573;BME280;4324;42.012;24.872;2022-10-17T12:56:35;100417.44;;;18.78;45.66
8573;BME280;4324;42.012;24.872;2022-10-17T12:59:14;100420.09;;;18.78;45.58
8573;BME280;4324;42.012;24.872;2022-10-17T13:01:55;100422.16;;;18.76;45.60
8573;BME280;4324;42.012;24.872;2022-10-17T13:04:33;100424.44;;;18.79;45.59
8573;BME280;4324;42.012;24.872;2022-10-17T13:07:02;100424.66;;;18.78;45.64
8573;BME280;4324;42.012;24.872;2022-10-17T13:09:31;100427.53;;;18.76;45.69
8573;BME280;4324;42.012;24.872;2022-10-17T13:12:04;100409.81;;;18.67;45.71
8573;BME280;4324;42.012;24.872;2022-10-17T13:14:42;100420.84;;;18.72;45.42
8573;BME280;4324;42.012;24.872;2022-10-17T13:17:33;100421.03;;;18.71;45.73
8573;BME280;4324;42.012;24.872;2022-10-17T13:20:00;100406.50;;;18.65;45.61
8573;BME280;4324;42.012;24.872;2022-10-17T13:22:29;100405.63;;;18.65;45.78
8573;BME280;4324;42.012;24.872;2022-10-17T13:25:07;100418.50;;;18.69;45.72
8573;BME280;4324;42.012;24.872;2022-10-17T13:27:35;100420.53;;;18.67;45.76
8573;BME280;4324;42.012;24.872;2022-10-17T13:30:26;100421.19;;;18.69;45.75
8573;BME280;4324;42.012;24.872;2022-10-17T13:32:53;100411.19;;;18.63;45.88
8573;BME280;4324;42.012;24.872;2022-10-17T13:35:26;100420.34;;;18.69;45.75
8573;BME280;4324;42.012;24.872;2022-10-17T13:37:55;100409.06;;;18.58;45.86
8573;BME280;4324;42.012;24.872;2022-10-17T13:40:29;100420.78;;;18.57;46.04
8573;BME280;4324;42.012;24.872;2022-10-17T13:43:09;100422.84;;;18.55;46.17
8573;BME280;4324;42.012;24.872;2022-10-17T13:45:58;100419.78;;;18.44;46.15
8573;BME280;4324;42.012;24.872;2022-10-17T13:48:32;100422.00;;;18.40;45.94
8573;BME280;4324;42.012;24.872;2022-10-17T13:51:02;100422.53;;;18.35;46.25
8573;BME280;4324;42.012;24.872;2022-10-17T13:53:32;100423.91;;;18.31;46.39
8573;BME280;4324;42.012;24.872;2022-10-17T13:56:05;100419.91;;;18.27;46.54
8573;BME280;4324;42.012;24.872;2022-10-17T13:58:58;100418.44;;;18.25;46.55
8573;BME280;4324;42.012;24.872;2022-10-17T14:01:28;100412.78;;;18.20;46.58
8573;BME280;4324;42.012;24.872;2022-10-17T14:04:10;100408.91;;;18.22;46.73
8573;BME280;4324;42.012;24.872;2022-10-17T14:06:40;100403.28;;;18.17;46.68
8573;BME280;4324;42.012;24.872;2022-10-17T14:09:17;100413.59;;;18.20;46.79